Green Rock, IL

10:30 AM CDT on September 30, 2016 (GMT -0500)
Colona Weather | | Change Station

Elev 580 ft 41.47 °N, 90.36 °W | Updated 22 seconds ago

Overcast
Overcast
61.7 °F
Feels Like 61.7 °F
N
11.5
Wind Variable Wind from North
Gusts 11.5 mph

Today
High -- | Low -- °F
--% Chance of Precip.
Yesterday
High -- | Low -- °F
Precip. -- in
Pressure 30.18 in
Visibility 10.0 miles
Clouds Mostly Cloudy 1400 ft
Overcast 2500 ft
Dew Point 58 °F
Humidity 89%
Rainfall 0.00 in
Snow Depth Not available.
6:57 AM 6:43 PM
Waning Crescent, 0% visible
METAR KMLI 301452Z 02008KT 10SM BKN014 OVC025 16/13 A3018 RMK AO2 SLP219 60000 T01610133 55004
Pressure 30.18 in
Visibility 10.0 miles
Clouds Mostly Cloudy 1400 ft
Overcast 2500 ft
Dew Point 58 °F
Humidity 89%
Rainfall 0.00 in
Snow Depth Not available.
6:57 AM 6:43 PM
Waning Crescent, 0% visible
METAR KMLI 301452Z 02008KT 10SM BKN014 OVC025 16/13 A3018 RMK AO2 SLP219 60000 T01610133 55004

10-Day Weather Forecast

Almanac

Astronomy

Sep. 30, 2016 Rise Set
Actual Time
Civil Twilight
Nautical Twilight
Astronomical Twilight
Moon
Length of Visible Light
Length of Day
Tomorrow will be .
, % of the Moon is Illuminated

Today's Extremes

State Highs State Lows

Community

WunderPhotos

Upload Photos

1,942,737 photos uploaded!

WunderBlog® & News

Nearby

Air Quality

  Air Quality AQ Index Pollutant
Not available.

Snow Depth

Station Depth Elevation

Earthquake Activity

City Distance Mag. Time & Date
Minimum magnitude displayed is 2.5.

Coastal Water Temperatures

Place Temperature

Stations

Nearby Weather Stations

Station Location Temp. Windchill Dew Point Humidity Wind Precip. Elev Updated Type
                   

Watches & Warnings

There are currently no watches in effect.